Time;durP1;ratioP1;P1;durP2;ratioP2;P2;SDS_P1;SDS_P2;PMS_P1;PMS_P2;Temp;Humidity;BMP_temperature;BMP_pressure;BME280_temperature;BME280_humidity;BME280_pressure;Samples;Min_cycle;Max_cycle;Signal;HPM_P1;HPM_P2
2023/10/17 00:01:34;;;;;;;11.00;5.85;;;;;;;;;;5073162;28;20040;-59
2023/10/17 00:04:38;;;;;;;11.25;6.80;;;;;;;;;;5071403;28;20040;-59
2023/10/17 00:07:02;;;;;;;10.30;5.85;;;;;;;;;;5066273;28;20066;-59
2023/10/17 00:09:29;;;;;;;9.80;5.50;;;;;;;;;;5073443;28;20043;-59
2023/10/17 00:14:24;;;;;;;10.70;5.38;;;;;;;;;;5073642;28;20151;-60
2023/10/17 00:16:50;;;;;;;10.63;5.07;;;;;;;;;;5069807;28;20143;-59
2023/10/17 00:19:18;;;;;;;11.65;7.32;;;;;;;;;;5073750;28;20190;-59
2023/10/17 00:21:45;;;;;;;12.25;7.88;;;;;;;;;;5074868;28;20052;-59
2023/10/17 00:24:11;;;;;;;12.85;6.93;;;;;;;;;;5070560;28;20036;-59
2023/10/17 00:26:38;;;;;;;12.63;6.95;;;;;;;;;;5071132;28;20044;-59
2023/10/17 00:29:05;;;;;;;12.75;7.72;;;;;;;;;;5076805;28;20059;-60
2023/10/17 00:31:32;;;;;;;11.95;7.78;;;;;;;;;;5077616;28;20543;-59
2023/10/17 00:34:00;;;;;;;10.73;7.32;;;;;;;;;;5073611;28;20069;-59
2023/10/17 00:36:27;;;;;;;15.00;8.45;;;;;;;;;;5073035;28;20049;-59
2023/10/17 00:39:08;;;;;;;13.05;8.20;;;;;;;;;;5076409;28;20032;-59
2023/10/17 00:42:09;;;;;;;16.67;9.07;;;;;;;;;;5070418;28;20074;-59
2023/10/17 00:44:39;;;;;;;11.65;7.53;;;;;;;;;;5074456;28;20040;-59
2023/10/17 00:47:07;;;;;;;13.05;7.65;;;;;;;;;;5072323;28;20062;-59
2023/10/17 00:49:42;;;;;;;10.25;7.50;;;;;;;;;;5075028;28;20060;-59
2023/10/17 00:52:20;;;;;;;16.08;7.45;;;;;;;;;;5072958;28;20044;-59
2023/10/17 00:54:47;;;;;;;12.38;7.45;;;;;;;;;;5070706;28;20120;-59
2023/10/17 00:57:15;;;;;;;14.15;8.80;;;;;;;;;;5077573;28;20408;-59
2023/10/17 00:59:50;;;;;;;15.10;8.57;;;;;;;;;;5070164;28;20467;-59
2023/10/17 01:02:16;;;;;;;14.48;8.98;;;;;;;;;;5071216;28;20048;-59
2023/10/17 01:04:44;;;;;;;13.00;7.85;;;;;;;;;;5073372;28;20439;-59
2023/10/17 01:07:12;;;;;;;12.18;8.82;;;;;;;;;;5069402;28;20103;-59
2023/10/17 01:09:39;;;;;;;13.02;7.75;;;;;;;;;;5071173;28;20356;-59
2023/10/17 01:12:10;;;;;;;14.32;8.95;;;;;;;;;;5070643;28;20502;-59
2023/10/17 01:14:40;;;;;;;15.45;9.25;;;;;;;;;;5087546;28;20048;-59
2023/10/17 01:17:13;;;;;;;12.48;8.52;;;;;;;;;;5068677;28;20105;-59
2023/10/17 01:19:39;;;;;;;12.60;8.13;;;;;;;;;;5071332;28;20044;-60
2023/10/17 01:22:05;;;;;;;15.77;9.18;;;;;;;;;;5073286;28;20040;-59
2023/10/17 01:24:32;;;;;;;14.88;7.85;;;;;;;;;;5069493;28;20522;-59
2023/10/17 01:27:05;;;;;;;11.05;8.35;;;;;;;;;;5067400;28;20116;-59
2023/10/17 01:29:31;;;;;;;16.10;9.27;;;;;;;;;;5074327;28;20040;-59
2023/10/17 01:31:59;;;;;;;10.90;6.85;;;;;;;;;;5069935;28;20040;-59
2023/10/17 01:34:25;;;;;;;11.80;7.50;;;;;;;;;;5070958;28;20048;-59
2023/10/17 01:36:53;;;;;;;9.70;6.40;;;;;;;;;;5072307;28;20043;-59
2023/10/17 01:39:20;;;;;;;10.25;6.40;;;;;;;;;;5071083;28;20047;-59
2023/10/17 01:41:48;;;;;;;10.15;6.15;;;;;;;;;;5074407;28;20036;-59
2023/10/17 01:44:14;;;;;;;10.05;6.72;;;;;;;;;;5072192;28;20392;-59
2023/10/17 01:46:43;;;;;;;11.63;6.78;;;;;;;;;;5069324;28;20044;-59
2023/10/17 01:49:13;;;;;;;10.68;6.32;;;;;;;;;;5071073;28;20461;-59
2023/10/17 01:51:44;;;;;;;18.35;5.90;;;;;;;;;;5071341;28;20051;-59
2023/10/17 01:54:15;;;;;;;9.55;6.43;;;;;;;;;;5070728;28;20058;-59
2023/10/17 01:56:47;;;;;;;10.90;6.18;;;;;;;;;;5072868;28;20040;-60
2023/10/17 01:59:17;;;;;;;10.88;6.13;;;;;;;;;;5073446;28;20036;-59
2023/10/17 02:01:43;;;;;;;10.35;6.20;;;;;;;;;;5071297;28;20075;-59
2023/10/17 02:04:18;;;;;;;14.10;5.75;;;;;;;;;;5067028;28;20032;-59
2023/10/17 02:06:47;;;;;;;12.95;6.25;;;;;;;;;;5067423;28;20084;-59
2023/10/17 02:12:00;;;;;;;10.23;6.22;;;;;;;;;;5072645;28;20395;-59
2023/10/17 02:14:27;;;;;;;11.70;6.30;;;;;;;;;;5069299;28;20495;-59
2023/10/17 02:16:55;;;;;;;13.32;6.03;;;;;;;;;;5073774;28;20119;-59
2023/10/17 02:19:23;;;;;;;12.93;6.18;;;;;;;;;;5070646;28;20111;-59
2023/10/17 02:21:50;;;;;;;11.80;6.65;;;;;;;;;;5073308;28;20835;-59
2023/10/17 02:24:19;;;;;;;14.63;6.60;;;;;;;;;;5070768;28;20071;-59
2023/10/17 02:27:00;;;;;;;13.15;6.97;;;;;;;;;;5075071;28;20436;-59
2023/10/17 02:29:29;;;;;;;11.93;5.72;;;;;;;;;;5075245;28;20840;-59
2023/10/17 02:31:56;;;;;;;15.40;7.57;;;;;;;;;;5076309;28;20460;-59
2023/10/17 02:34:23;;;;;;;23.10;8.27;;;;;;;;;;5072093;28;20040;-59
2023/10/17 02:36:49;;;;;;;17.95;8.52;;;;;;;;;;5071996;28;20052;-59
2023/10/17 02:39:16;;;;;;;15.32;7.20;;;;;;;;;;5071825;28;20452;-59
2023/10/17 02:41:46;;;;;;;13.50;6.93;;;;;;;;;;5072572;28;20515;-59
2023/10/17 02:44:18;;;;;;;14.32;7.00;;;;;;;;;;5072619;28;20067;-59
2023/10/17 02:46:44;;;;;;;19.33;7.68;;;;;;;;;;5074866;28;20052;-59
2023/10/17 02:49:13;;;;;;;17.15;6.72;;;;;;;;;;5069711;28;20040;-59
2023/10/17 02:51:43;;;;;;;12.32;6.50;;;;;;;;;;5071382;28;20048;-59
2023/10/17 02:54:13;;;;;;;14.45;7.53;;;;;;;;;;5070386;28;20036;-59
2023/10/17 02:56:46;;;;;;;15.23;7.57;;;;;;;;;;5072985;28;20181;-60
2023/10/17 02:59:12;;;;;;;14.80;6.55;;;;;;;;;;5076785;28;20044;-59
2023/10/17 03:01:40;;;;;;;14.95;6.28;;;;;;;;;;5086412;28;20048;-59
2023/10/17 03:04:10;;;;;;;9.65;5.53;;;;;;;;;;5077995;28;20040;-59
2023/10/17 03:06:40;;;;;;;14.18;5.65;;;;;;;;;;5066679;28;20372;-59
2023/10/17 03:09:18;;;;;;;11.65;5.57;;;;;;;;;;5070399;28;20125;-59
2023/10/17 03:11:50;;;;;;;10.40;4.85;;;;;;;;;;5073610;28;20491;-59
2023/10/17 03:14:19;;;;;;;12.43;5.22;;;;;;;;;;5072065;28;20501;-59
2023/10/17 03:16:52;;;;;;;10.32;5.38;;;;;;;;;;5073970;28;20051;-59
2023/10/17 03:19:25;;;;;;;11.65;5.97;;;;;;;;;;5069589;28;20109;-59
2023/10/17 03:21:53;;;;;;;11.43;5.95;;;;;;;;;;5078801;28;20440;-59
2023/10/17 03:24:19;;;;;;;9.02;5.57;;;;;;;;;;5075295;28;20041;-59
2023/10/17 03:26:55;;;;;;;9.55;5.15;;;;;;;;;;5070109;28;20044;-59
2023/10/17 03:29:23;;;;;;;8.25;4.88;;;;;;;;;;5077950;28;20070;-59
2023/10/17 03:31:58;;;;;;;10.15;5.45;;;;;;;;;;5080753;28;20076;-59
2023/10/17 03:34:35;;;;;;;14.20;5.82;;;;;;;;;;5077255;28;20082;-59
2023/10/17 03:37:50;;;;;;;11.77;6.10;;;;;;;;;;5075727;28;20419;-59
2023/10/17 03:40:17;;;;;;;13.20;6.13;;;;;;;;;;5072754;28;20044;-59
2023/10/17 03:45:13;;;;;;;10.52;5.65;;;;;;;;;;5076681;28;20044;-59
2023/10/17 03:48:04;;;;;;;9.18;5.38;;;;;;;;;;5075354;28;20550;-59
2023/10/17 03:50:43;;;;;;;14.90;5.18;;;;;;;;;;5072773;28;20123;-59
2023/10/17 03:53:44;;;;;;;10.32;4.63;;;;;;;;;;5079310;28;20432;-59
2023/10/17 03:56:03;;;;;;;10.13;5.78;;;;;;;;;;5089125;28;20066;-59
2023/10/17 04:00:58;;;;;;;8.25;4.60;;;;;;;;;;5077857;28;20040;-59
2023/10/17 04:03:31;;;;;;;8.65;4.53;;;;;;;;;;5071493;28;20484;-59
2023/10/17 04:08:34;;;;;;;14.10;4.50;;;;;;;;;;5073523;28;20052;-59
2023/10/17 04:13:49;;;;;;;11.70;5.78;;;;;;;;;;5072150;28;20070;-59
2023/10/17 04:16:22;;;;;;;13.38;4.70;;;;;;;;;;5071744;28;20067;-60
2023/10/17 04:18:57;;;;;;;11.05;5.28;;;;;;;;;;5069733;28;20040;-59
2023/10/17 04:23:52;;;;;;;9.70;5.38;;;;;;;;;;5069468;28;20507;-59
2023/10/17 04:26:19;;;;;;;11.80;5.38;;;;;;;;;;5070916;28;20044;-59
2023/10/17 04:28:50;;;;;;;10.30;4.90;;;;;;;;;;5075685;28;20060;-59
2023/10/17 04:31:25;;;;;;;10.18;5.20;;;;;;;;;;5073730;28;20048;-59
2023/10/17 04:33:56;;;;;;;9.30;5.10;;;;;;;;;;5073710;28;20157;-59
2023/10/17 04:36:23;;;;;;;11.68;5.30;;;;;;;;;;5074841;28;20075;-59
2023/10/17 04:39:10;;;;;;;9.90;5.40;;;;;;;;;;5071097;28;20052;-59
2023/10/17 04:44:23;;;;;;;;;;;;;;;;;;5070568;28;20052;-59
2023/10/17 04:46:50;;;;;;;11.38;5.25;;;;;;;;;;5075526;28;19996;-59
2023/10/17 04:49:18;;;;;;;8.23;4.10;;;;;;;;;;5070747;28;20040;-59
2023/10/17 04:51:45;;;;;;;11.15;4.78;;;;;;;;;;5071190;28;20093;-59
2023/10/17 04:54:30;;;;;;;11.60;6.47;;;;;;;;;;5067194;28;20425;-59
2023/10/17 04:56:59;;;;;;;11.32;4.53;;;;;;;;;;5070511;28;20489;-59
2023/10/17 04:59:51;;;;;;;7.85;4.70;;;;;;;;;;5069757;28;20399;-59
2023/10/17 06:19:21;;;;;;;13.18;4.95;;;;;;;;;;5059216;28;20051;-60
2023/10/17 06:27:12;;;;;;;9.18;4.40;;;;;;;;;;5061229;28;20253;-60
2023/10/17 06:32:48;;;;;;;11.90;5.20;;;;;;;;;;5060110;28;20049;-59
2023/10/17 06:35:20;;;;;;;12.00;5.28;;;;;;;;;;5061255;28;20146;-60
2023/10/17 06:37:51;;;;;;;16.55;5.75;;;;;;;;;;5059709;28;20048;-59
2023/10/17 06:40:17;;;;;;;13.35;5.18;;;;;;;;;;5055328;28;20124;-60
2023/10/17 06:42:57;;;;;;;11.90;5.65;;;;;;;;;;5068005;28;20428;-60
2023/10/17 06:45:24;;;;;;;10.02;4.82;;;;;;;;;;5069725;28;20036;-61
2023/10/17 06:47:56;;;;;;;13.10;4.45;;;;;;;;;;5072807;28;20052;-60
2023/10/17 06:53:27;;;;;;;8.73;4.30;;;;;;;;;;5060674;28;20102;-61
2023/10/17 06:55:58;;;;;;;11.65;4.85;;;;;;;;;;5073956;28;20052;-61
2023/10/17 06:58:27;;;;;;;9.38;4.38;;;;;;;;;;5073040;28;20055;-61
2023/10/17 07:00:56;;;;;;;9.13;5.43;;;;;;;;;;5072222;28;20093;-61
2023/10/17 07:03:25;;;;;;;7.05;3.67;;;;;;;;;;5072276;28;20404;-61
2023/10/17 07:06:03;;;;;;;10.65;4.60;;;;;;;;;;5069995;28;20044;-60
2023/10/17 07:08:36;;;;;;;14.07;4.82;;;;;;;;;;5069130;28;20059;-60
2023/10/17 07:11:26;;;;;;;14.63;5.03;;;;;;;;;;5070008;28;20118;-60
2023/10/17 07:16:41;;;;;;;14.85;5.88;;;;;;;;;;5070770;28;20044;-60
2023/10/17 07:24:26;;;;;;;12.80;4.80;;;;;;;;;;5071998;28;20046;-60
2023/10/17 07:26:53;;;;;;;9.13;4.55;;;;;;;;;;5071482;28;20128;-60
2023/10/17 07:29:23;;;;;;;14.85;5.82;;;;;;;;;;5072196;28;20515;-60
2023/10/17 07:31:53;;;;;;;11.25;4.70;;;;;;;;;;5072707;28;20041;-60
2023/10/17 07:34:21;;;;;;;10.80;5.05;;;;;;;;;;5072054;28;20048;-60
2023/10/17 07:36:50;;;;;;;8.45;4.45;;;;;;;;;;5070345;28;20045;-60
2023/10/17 07:39:24;;;;;;;9.10;5.03;;;;;;;;;;5071820;28;20369;-60
2023/10/17 07:41:53;;;;;;;15.68;4.88;;;;;;;;;;5082036;28;20048;-60
2023/10/17 07:44:21;;;;;;;9.70;4.43;;;;;;;;;;5087107;28;20060;-60
2023/10/17 07:47:03;;;;;;;15.57;4.25;;;;;;;;;;5077307;28;20451;-60
2023/10/17 07:49:29;;;;;;;7.97;3.92;;;;;;;;;;5093013;28;20044;-60
2023/10/17 07:51:58;;;;;;;12.02;4.40;;;;;;;;;;5083082;28;20060;-60
2023/10/17 07:54:30;;;;;;;9.32;3.92;;;;;;;;;;5092232;28;20113;-61
2023/10/17 07:56:58;;;;;;;8.35;3.22;;;;;;;;;;5072450;28;20452;-60
2023/10/17 07:59:31;;;;;;;9.63;3.28;;;;;;;;;;5076721;28;20055;-61
2023/10/17 08:01:59;;;;;;;7.63;2.97;;;;;;;;;;5069586;28;20044;-60
2023/10/17 08:04:30;;;;;;;12.10;3.63;;;;;;;;;;5085566;28;20126;-60
2023/10/17 08:06:56;;;;;;;7.47;2.78;;;;;;;;;;5092069;28;20043;-60
2023/10/17 08:11:53;;;;;;;8.32;2.70;;;;;;;;;;5086728;28;20234;-60
2023/10/17 08:14:22;;;;;;;4.55;2.58;;;;;;;;;;5074065;28;20040;-60
2023/10/17 08:16:55;;;;;;;8.43;3.60;;;;;;;;;;5084695;28;20816;-61
2023/10/17 08:19:22;;;;;;;10.55;3.05;;;;;;;;;;5082445;28;20043;-60
2023/10/17 08:24:34;;;;;;;7.15;2.35;;;;;;;;;;5092401;28;20464;-60
2023/10/17 08:32:39;;;;;;;8.02;2.08;;;;;;;;;;5087513;28;20051;-60
2023/10/17 08:35:20;;;;;;;5.87;1.83;;;;;;;;;;5069930;28;20049;-60
2023/10/17 08:37:52;;;;;;;8.10;2.10;;;;;;;;;;5067060;28;20044;-60
2023/10/17 08:43:01;;;;;;;10.20;2.72;;;;;;;;;;5060258;28;20044;-61
2023/10/17 08:45:27;;;;;;;6.40;1.90;;;;;;;;;;5071870;28;20037;-60
2023/10/17 08:48:00;;;;;;;8.55;2.17;;;;;;;;;;5068238;28;20045;-60
2023/10/17 08:50:27;;;;;;;15.25;2.33;;;;;;;;;;5059677;28;20041;-60
2023/10/17 08:52:53;;;;;;;7.95;2.17;;;;;;;;;;5070589;28;20037;-61
2023/10/17 08:55:21;;;;;;;10.45;2.42;;;;;;;;;;5079644;28;20501;-60
2023/10/17 08:57:47;;;;;;;9.10;2.17;;;;;;;;;;5081885;28;20553;-61
2023/10/17 09:00:23;;;;;;;4.85;1.60;;;;;;;;;;5086211;28;20036;-61
2023/10/17 09:02:56;;;;;;;8.07;1.88;;;;;;;;;;5070113;28;20452;-61
2023/10/17 09:05:29;;;;;;;5.88;1.58;;;;;;;;;;5064087;28;20451;-61
2023/10/17 09:07:56;;;;;;;5.30;1.40;;;;;;;;;;5080354;28;20051;-61
2023/10/17 09:10:45;;;;;;;5.22;1.42;;;;;;;;;;5090286;28;20084;-61
2023/10/17 09:13:42;;;;;;;4.45;1.48;;;;;;;;;;5087550;28;20044;-61
2023/10/17 09:16:10;;;;;;;6.03;1.48;;;;;;;;;;5080357;28;20095;-60
2023/10/17 09:18:42;;;;;;;3.67;1.23;;;;;;;;;;5088043;28;20048;-60
2023/10/17 09:21:09;;;;;;;4.45;1.50;;;;;;;;;;5074145;28;20068;-61
2023/10/17 09:23:38;;;;;;;8.68;1.50;;;;;;;;;;5087767;28;20060;-59
2023/10/17 09:26:07;;;;;;;6.07;1.50;;;;;;;;;;5081697;28;20540;-59
2023/10/17 09:28:35;;;;;;;6.22;1.33;;;;;;;;;;5075905;28;20596;-60
2023/10/17 09:31:06;;;;;;;7.10;1.25;;;;;;;;;;5089352;28;20066;-60
2023/10/17 09:33:33;;;;;;;6.15;1.58;;;;;;;;;;5077364;28;20100;-60
2023/10/17 09:36:00;;;;;;;5.38;1.27;;;;;;;;;;5071930;28;20333;-60
2023/10/17 09:38:31;;;;;;;3.15;0.90;;;;;;;;;;5070267;28;20052;-60
2023/10/17 09:41:01;;;;;;;4.68;1.55;;;;;;;;;;5072154;28;20445;-60
2023/10/17 09:43:28;;;;;;;5.70;1.17;;;;;;;;;;5091306;28;20028;-60
2023/10/17 09:45:56;;;;;;;7.10;1.20;;;;;;;;;;5083492;28;20123;-60
2023/10/17 09:48:48;;;;;;;3.95;1.20;;;;;;;;;;5080820;28;20127;-60
2023/10/17 09:51:24;;;;;;;6.30;1.00;;;;;;;;;;5072263;28;20064;-61
2023/10/17 09:53:53;;;;;;;8.15;1.60;;;;;;;;;;5090150;28;20411;-65
2023/10/17 09:56:21;;;;;;;5.78;1.20;;;;;;;;;;5082617;28;20052;-61
2023/10/17 09:58:51;;;;;;;3.60;1.00;;;;;;;;;;5085422;28;20062;-60
2023/10/17 10:01:18;;;;;;;7.25;1.27;;;;;;;;;;5074148;28;20037;-60
2023/10/17 10:03:46;;;;;;;5.57;1.13;;;;;;;;;;5081857;28;20499;-60
2023/10/17 10:06:21;;;;;;;5.50;0.95;;;;;;;;;;5081278;28;20497;-60
2023/10/17 10:08:48;;;;;;;3.92;0.98;;;;;;;;;;5068967;28;20496;-60
2023/10/17 10:11:17;;;;;;;4.40;1.00;;;;;;;;;;5090803;28;20101;-60
2023/10/17 10:14:03;;;;;;;7.50;1.02;;;;;;;;;;5089762;28;20411;-60
2023/10/17 10:16:49;;;;;;;6.18;1.38;;;;;;;;;;5077338;28;20123;-60
2023/10/17 10:19:16;;;;;;;5.55;1.45;;;;;;;;;;5072989;28;20504;-60
2023/10/17 10:21:54;;;;;;;6.22;1.23;;;;;;;;;;5064492;28;20170;-60
2023/10/17 10:24:26;;;;;;;3.45;1.02;;;;;;;;;;5063681;28;20350;-60
2023/10/17 10:27:18;;;;;;;5.00;1.92;;;;;;;;;;5065288;28;20518;-60
2023/10/17 10:29:56;;;;;;;7.32;1.10;;;;;;;;;;5063728;28;20092;-60
2023/10/17 10:32:25;;;;;;;8.40;1.27;;;;;;;;;;5066242;28;20063;-60
2023/10/17 10:34:52;;;;;;;4.72;1.20;;;;;;;;;;5065052;28;20400;-60
2023/10/17 10:37:21;;;;;;;7.55;1.75;;;;;;;;;;5065291;28;20516;-61
2023/10/17 10:42:45;;;;;;;6.80;1.20;;;;;;;;;;5066654;28;20085;-60
2023/10/17 10:45:47;;;;;;;4.60;1.77;;;;;;;;;;5062007;28;20104;-60
2023/10/17 10:48:17;;;;;;;3.83;1.70;;;;;;;;;;5065196;28;20073;-60
2023/10/17 10:50:54;;;;;;;6.35;1.45;;;;;;;;;;5066763;28;20141;-60
2023/10/17 10:53:21;;;;;;;2.55;1.20;;;;;;;;;;5064678;28;20048;-60
2023/10/17 10:56:02;;;;;;;3.38;1.27;;;;;;;;;;5064806;28;20045;-60
2023/10/17 10:58:29;;;;;;;7.13;1.50;;;;;;;;;;5064697;28;20093;-60
2023/10/17 11:00:58;;;;;;;5.65;1.40;;;;;;;;;;5062930;28;20040;-60
2023/10/17 11:03:25;;;;;;;5.15;1.50;;;;;;;;;;5064050;28;20488;-60
2023/10/17 11:05:54;;;;;;;4.85;1.67;;;;;;;;;;5064966;28;20457;-61
2023/10/17 11:08:21;;;;;;;4.53;1.23;;;;;;;;;;5065709;28;20539;-61
2023/10/17 11:10:47;;;;;;;5.82;1.25;;;;;;;;;;5072754;28;20048;-61
2023/10/17 11:13:15;;;;;;;4.05;1.02;;;;;;;;;;5073400;28;20173;-61
2023/10/17 11:15:45;;;;;;;8.18;1.40;;;;;;;;;;5071545;28;20040;-61
2023/10/17 11:18:11;;;;;;;3.35;1.10;;;;;;;;;;5065573;28;20400;-60
2023/10/17 11:20:41;;;;;;;5.45;1.42;;;;;;;;;;5073454;28;20396;-61
2023/10/17 11:23:09;;;;;;;3.47;1.30;;;;;;;;;;5072881;28;20044;-68
2023/10/17 11:25:36;;;;;;;4.43;1.38;;;;;;;;;;5069302;28;20043;-61
2023/10/17 11:28:07;;;;;;;3.75;1.23;;;;;;;;;;5071972;28;20072;-61
2023/10/17 11:30:40;;;;;;;6.35;1.40;;;;;;;;;;5071146;28;20047;-61
2023/10/17 11:33:10;;;;;;;4.18;1.40;;;;;;;;;;5072355;28;20110;-61
2023/10/17 11:35:45;;;;;;;4.43;1.02;;;;;;;;;;5072326;28;20440;-61
2023/10/17 11:38:22;;;;;;;4.35;1.30;;;;;;;;;;5070838;28;20511;-61
2023/10/17 11:40:49;;;;;;;4.15;1.17;;;;;;;;;;5073052;28;20044;-61
2023/10/17 11:43:16;;;;;;;4.28;1.15;;;;;;;;;;5089979;28;20039;-61
2023/10/17 11:45:42;;;;;;;4.00;0.93;;;;;;;;;;5077677;28;20059;-61
2023/10/17 11:48:43;;;;;;;5.45;1.30;;;;;;;;;;5086864;28;20052;-61
2023/10/17 11:51:12;;;;;;;5.18;1.23;;;;;;;;;;5061068;28;20415;-61
2023/10/17 11:53:57;;;;;;;6.35;1.00;;;;;;;;;;5080104;28;20047;-61
2023/10/17 11:56:23;;;;;;;4.97;1.50;;;;;;;;;;5092919;28;20134;-60
2023/10/17 11:58:54;;;;;;;4.40;1.20;;;;;;;;;;5092806;28;20048;-60
2023/10/17 12:01:20;;;;;;;8.10;1.20;;;;;;;;;;5081483;28;20399;-59
2023/10/17 12:03:46;;;;;;;4.10;1.00;;;;;;;;;;5070957;28;20043;-60
2023/10/17 12:06:15;;;;;;;5.03;0.90;;;;;;;;;;5074570;28;20052;-59
2023/10/17 12:08:43;;;;;;;7.45;1.23;;;;;;;;;;5084244;28;20048;-60
2023/10/17 12:11:10;;;;;;;3.55;1.15;;;;;;;;;;5073574;28;20116;-59
2023/10/17 12:13:37;;;;;;;5.55;1.00;;;;;;;;;;5090072;28;20522;-60
2023/10/17 12:16:08;;;;;;;4.85;1.00;;;;;;;;;;5092692;28;20051;-60
2023/10/17 12:18:38;;;;;;;4.47;1.30;;;;;;;;;;5092725;28;20449;-60
2023/10/17 12:21:04;;;;;;;5.00;0.95;;;;;;;;;;5089432;28;20048;-59
2023/10/17 12:23:31;;;;;;;3.03;1.00;;;;;;;;;;5092582;28;20115;-60
2023/10/17 12:26:26;;;;;;;6.82;1.35;;;;;;;;;;5092615;28;20039;-60
2023/10/17 12:28:46;;;;;;;6.53;1.10;;;;;;;;;;5090880;28;20089;-60
2023/10/17 12:31:19;;;;;;;2.85;0.90;;;;;;;;;;5092660;28;20193;-60
2023/10/17 12:33:45;;;;;;;3.57;1.17;;;;;;;;;;5092364;28;20055;-60
2023/10/17 12:36:12;;;;;;;5.28;1.17;;;;;;;;;;5072191;28;20114;-60
2023/10/17 12:38:39;;;;;;;6.25;1.10;;;;;;;;;;5071009;28;20113;-59
2023/10/17 12:41:08;;;;;;;3.97;0.93;;;;;;;;;;5073955;28;20086;-59
2023/10/17 12:43:35;;;;;;;3.92;0.93;;;;;;;;;;5090637;28;20199;-60
2023/10/17 12:46:02;;;;;;;4.32;1.17;;;;;;;;;;5092154;28;20063;-59
2023/10/17 12:48:28;;;;;;;4.55;1.33;;;;;;;;;;5089378;28;20046;-60
2023/10/17 12:50:54;;;;;;;3.22;1.00;;;;;;;;;;5085385;28;20127;-59
2023/10/17 12:53:21;;;;;;;2.65;0.77;;;;;;;;;;5091923;28;20027;-59
2023/10/17 12:55:47;;;;;;;5.15;1.20;;;;;;;;;;5091064;28;20044;-59
2023/10/17 12:58:18;;;;;;;5.88;1.63;;;;;;;;;;5091989;28;20490;-60
2023/10/17 13:00:49;;;;;;;9.93;2.75;;;;;;;;;;5091798;28;20040;-59
2023/10/17 13:03:15;;;;;;;5.43;1.10;;;;;;;;;;5088580;28;20052;-59
2023/10/17 13:05:41;;;;;;;3.15;0.93;;;;;;;;;;5074375;28;20044;-60
2023/10/17 13:08:08;;;;;;;6.57;1.23;;;;;;;;;;5073831;28;20048;-59
2023/10/17 13:10:34;;;;;;;4.15;1.00;;;;;;;;;;5090913;28;20066;-59
2023/10/17 13:13:00;;;;;;;3.80;1.40;;;;;;;;;;5086949;28;20434;-59
2023/10/17 13:15:26;;;;;;;5.75;1.38;;;;;;;;;;5090819;28;20064;-59
2023/10/17 13:17:55;;;;;;;4.68;1.58;;;;;;;;;;5082137;28;20468;-59
2023/10/17 13:20:28;;;;;;;3.85;1.33;;;;;;;;;;5090047;28;20070;-59
2023/10/17 13:22:56;;;;;;;6.10;1.30;;;;;;;;;;5090071;28;20063;-59
2023/10/17 13:25:22;;;;;;;4.05;1.20;;;;;;;;;;5090724;28;20125;-59
2023/10/17 13:27:49;;;;;;;4.97;1.38;;;;;;;;;;5091180;28;20048;-59
2023/10/17 13:30:15;;;;;;;7.63;1.45;;;;;;;;;;5090949;28;20135;-59
2023/10/17 13:32:41;;;;;;;3.80;1.10;;;;;;;;;;5078967;28;20164;-59
2023/10/17 13:35:07;;;;;;;5.28;1.15;;;;;;;;;;5068521;28;20098;-59
2023/10/17 13:37:34;;;;;;;4.78;1.45;;;;;;;;;;5070996;28;20131;-59
2023/10/17 13:40:01;;;;;;;4.65;1.35;;;;;;;;;;5091238;28;20515;-59
2023/10/17 13:42:27;;;;;;;5.55;1.50;;;;;;;;;;5091293;28;20088;-59
2023/10/17 13:44:54;;;;;;;3.35;1.20;;;;;;;;;;5083490;28;20056;-59
2023/10/17 13:47:21;;;;;;;6.63;1.60;;;;;;;;;;5068574;28;20048;-59
2023/10/17 13:49:47;;;;;;;4.97;1.55;;;;;;;;;;5088931;28;20418;-59
2023/10/17 13:52:17;;;;;;;8.65;1.40;;;;;;;;;;5079094;28;20500;-62
2023/10/17 13:54:44;;;;;;;4.43;1.20;;;;;;;;;;5071259;28;20091;-59
2023/10/17 13:57:12;;;;;;;7.38;1.80;;;;;;;;;;5070776;28;20127;-59
2023/10/17 13:59:38;;;;;;;8.25;1.55;;;;;;;;;;5068665;28;20059;-59
2023/10/17 14:02:08;;;;;;;4.45;1.60;;;;;;;;;;5067834;28;20044;-59
2023/10/17 14:04:36;;;;;;;4.38;1.45;;;;;;;;;;5070925;28;20542;-59
2023/10/17 14:07:05;;;;;;;5.93;1.58;;;;;;;;;;5069750;28;20044;-59
2023/10/17 14:09:32;;;;;;;6.68;1.73;;;;;;;;;;5068923;28;20044;-59
2023/10/17 14:11:59;;;;;;;6.47;2.42;;;;;;;;;;5070400;28;20029;-59
2023/10/17 14:14:25;;;;;;;7.13;2.13;;;;;;;;;;5069539;28;20045;-59
2023/10/17 14:16:56;;;;;;;5.03;1.38;;;;;;;;;;5069706;28;20139;-60
2023/10/17 14:19:36;;;;;;;6.07;1.83;;;;;;;;;;5069815;28;20116;-59
2023/10/17 14:27:24;;;;;;;7.07;1.27;;;;;;;;;;5069391;28;20048;-59
2023/10/17 14:29:52;;;;;;;7.90;1.73;;;;;;;;;;5067999;28;20098;-59
2023/10/17 14:32:20;;;;;;;7.72;1.63;;;;;;;;;;5081813;28;20044;-59
2023/10/17 14:34:47;;;;;;;15.13;1.75;;;;;;;;;;5069411;28;20040;-59
2023/10/17 14:37:14;;;;;;;4.10;1.50;;;;;;;;;;5069466;28;20385;-59
2023/10/17 14:39:40;;;;;;;5.15;1.67;;;;;;;;;;5069067;28;20488;-60
2023/10/17 14:42:10;;;;;;;11.43;2.00;;;;;;;;;;5080704;28;20135;-60
2023/10/17 14:44:41;;;;;;;5.03;1.70;;;;;;;;;;5078895;28;20068;-60
2023/10/17 14:47:07;;;;;;;8.40;1.90;;;;;;;;;;5075910;28;20507;-59
2023/10/17 14:49:33;;;;;;;5.72;1.70;;;;;;;;;;5075425;28;20063;-59
2023/10/17 14:52:00;;;;;;;6.40;1.65;;;;;;;;;;5079259;28;20058;-59
2023/10/17 14:54:26;;;;;;;4.95;1.70;;;;;;;;;;5090272;28;20553;-59
2023/10/17 14:56:53;;;;;;;7.68;1.85;;;;;;;;;;5073076;28;20044;-60
2023/10/17 14:59:19;;;;;;;5.15;2.20;;;;;;;;;;5070939;28;20199;-59
2023/10/17 15:01:46;;;;;;;5.00;1.75;;;;;;;;;;5063070;28;20115;-59
2023/10/17 15:04:13;;;;;;;6.45;1.88;;;;;;;;;;5066216;28;20050;-60
2023/10/17 15:06:40;;;;;;;5.15;1.77;;;;;;;;;;5072063;28;20059;-59
2023/10/17 15:09:14;;;;;;;5.18;1.60;;;;;;;;;;5092854;28;20486;-59
2023/10/17 15:11:40;;;;;;;6.43;1.65;;;;;;;;;;5085241;28;20083;-59
2023/10/17 15:14:07;;;;;;;6.25;1.40;;;;;;;;;;5073159;28;20063;-59
2023/10/17 15:16:33;;;;;;;6.82;1.63;;;;;;;;;;5075233;28;20047;-59
2023/10/17 15:18:59;;;;;;;5.93;1.67;;;;;;;;;;5078472;28;20093;-59
2023/10/17 15:21:26;;;;;;;6.10;1.85;;;;;;;;;;5081786;28;20044;-59
2023/10/17 15:23:52;;;;;;;5.07;1.50;;;;;;;;;;5090813;28;20079;-59
2023/10/17 15:26:24;;;;;;;11.10;2.00;;;;;;;;;;5084507;28;20074;-60
2023/10/17 15:28:51;;;;;;;5.15;1.65;;;;;;;;;;5093405;28;20117;-59
2023/10/17 15:31:17;;;;;;;8.05;1.60;;;;;;;;;;5084154;28;20123;-61
2023/10/17 15:33:46;;;;;;;3.92;1.38;;;;;;;;;;5070260;28;20482;-59
2023/10/17 15:36:13;;;;;;;6.80;1.60;;;;;;;;;;5067393;28;20040;-59
2023/10/17 15:38:43;;;;;;;5.43;1.33;;;;;;;;;;5077751;28;20201;-60
2023/10/17 15:41:14;;;;;;;6.30;1.35;;;;;;;;;;5090673;28;20052;-60
2023/10/17 15:43:40;;;;;;;3.78;1.40;;;;;;;;;;5081012;28;20044;-60
2023/10/17 15:46:06;;;;;;;3.83;1.08;;;;;;;;;;5081408;28;20097;-60
2023/10/17 15:48:32;;;;;;;4.57;1.17;;;;;;;;;;5091174;28;20048;-60
2023/10/17 15:51:00;;;;;;;5.28;1.48;;;;;;;;;;5087216;28;20044;-60
2023/10/17 15:53:27;;;;;;;4.03;1.25;;;;;;;;;;5064695;28;20054;-60
2023/10/17 15:55:55;;;;;;;4.85;1.17;;;;;;;;;;5093350;28;20404;-60
2023/10/17 15:58:28;;;;;;;2.78;1.08;;;;;;;;;;5083175;28;20040;-60
2023/10/17 16:00:55;;;;;;;4.47;1.47;;;;;;;;;;5085462;28;20101;-60
2023/10/17 16:03:21;;;;;;;3.05;1.10;;;;;;;;;;5088717;28;20540;-60
2023/10/17 16:05:51;;;;;;;3.78;1.60;;;;;;;;;;5081312;28;20065;-60
2023/10/17 16:08:18;;;;;;;4.03;1.45;;;;;;;;;;5080452;28;20122;-60
2023/10/17 16:10:45;;;;;;;7.40;1.60;;;;;;;;;;5079883;28;20402;-60
2023/10/17 16:13:12;;;;;;;3.67;1.30;;;;;;;;;;5082377;28;20040;-60
2023/10/17 16:15:39;;;;;;;5.47;1.45;;;;;;;;;;5080815;28;20082;-60
2023/10/17 16:18:10;;;;;;;8.13;1.30;;;;;;;;;;5085910;28;20056;-60
2023/10/17 16:20:36;;;;;;;3.63;1.05;;;;;;;;;;5065384;28;20119;-60
2023/10/17 16:23:06;;;;;;;5.88;1.83;;;;;;;;;;5067738;28;20043;-59
2023/10/17 16:25:32;;;;;;;9.00;2.20;;;;;;;;;;5067775;28;20045;-60
2023/10/17 16:28:04;;;;;;;5.57;1.70;;;;;;;;;;5066704;28;20442;-59
2023/10/17 16:30:30;;;;;;;7.15;1.48;;;;;;;;;;5066396;28;20118;-59
2023/10/17 16:32:57;;;;;;;4.22;1.30;;;;;;;;;;5064240;28;20052;-59
2023/10/17 16:35:23;;;;;;;5.85;1.55;;;;;;;;;;5059869;28;20045;-59
2023/10/17 16:37:50;;;;;;;5.00;1.33;;;;;;;;;;5057129;28;20049;-59
2023/10/17 16:40:16;;;;;;;5.97;1.70;;;;;;;;;;5058585;28;20577;-59
2023/10/17 16:42:44;;;;;;;3.95;1.95;;;;;;;;;;5065338;28;20473;-59
2023/10/17 16:45:14;;;;;;;7.13;1.80;;;;;;;;;;5061272;28;20047;-59
2023/10/17 16:47:43;;;;;;;2.92;1.42;;;;;;;;;;5069254;28;20488;-59
2023/10/17 16:50:12;;;;;;;4.53;1.60;;;;;;;;;;5071787;28;20048;-59
2023/10/17 16:52:38;;;;;;;9.35;2.50;;;;;;;;;;5070334;28;20102;-59
2023/10/17 16:55:05;;;;;;;4.72;1.90;;;;;;;;;;5070761;28;20041;-59
2023/10/17 16:57:31;;;;;;;4.15;1.58;;;;;;;;;;5069948;28;20147;-59
2023/10/17 16:59:58;;;;;;;4.28;1.65;;;;;;;;;;5070766;28;20189;-59
2023/10/17 17:02:24;;;;;;;5.78;1.50;;;;;;;;;;5069082;28;20048;-59
2023/10/17 17:04:51;;;;;;;10.35;1.80;;;;;;;;;;5071236;28;20474;-59
2023/10/17 17:07:17;;;;;;;6.35;1.80;;;;;;;;;;5069701;28;20059;-61
2023/10/17 17:09:44;;;;;;;14.45;2.63;;;;;;;;;;5052578;28;20171;-59
2023/10/17 17:12:10;;;;;;;4.40;1.60;;;;;;;;;;5071723;28;20037;-59
2023/10/17 17:14:37;;;;;;;9.32;2.20;;;;;;;;;;5068410;28;20119;-59